createdAt,value
2024-03-13T00:00:59.615Z,50.66
2024-03-13T00:01:59.784Z,50.92
2024-03-13T00:03:00.030Z,50.85
2024-03-13T00:04:00.025Z,50.59
2024-03-13T00:05:00.085Z,50.60
2024-03-13T00:06:00.260Z,50.92
2024-03-13T00:07:00.378Z,50.74
2024-03-13T00:08:00.464Z,50.70
2024-03-13T00:09:00.612Z,50.20
2024-03-13T00:10:00.793Z,51.23
2024-03-13T00:11:01.031Z,50.35
2024-03-13T00:12:01.017Z,51.38
2024-03-13T00:13:01.184Z,50.69
2024-03-13T00:14:01.285Z,50.78
2024-03-13T00:15:01.434Z,50.50
2024-03-13T00:16:01.659Z,51.40
2024-03-13T00:17:01.698Z,51.92
2024-03-13T00:18:01.938Z,51.72
2024-03-13T00:19:02.097Z,51.74
2024-03-13T00:20:02.304Z,50.70
2024-03-13T00:21:02.406Z,50.71
2024-03-13T00:22:02.604Z,50.69
2024-03-13T00:23:02.738Z,50.77
2024-03-13T00:24:02.921Z,50.12
2024-03-13T00:25:03.088Z,51.34
2024-03-13T00:26:03.218Z,51.68
2024-03-13T00:27:03.371Z,51.50
2024-03-13T00:28:03.632Z,51.54
2024-03-13T00:29:03.735Z,51.39
2024-03-13T00:30:03.954Z,51.61
2024-03-13T00:31:04.090Z,52.08
2024-03-13T00:32:04.227Z,52.21
2024-03-13T00:33:04.442Z,52.20
2024-03-13T00:34:04.563Z,52.20
2024-03-13T00:35:04.727Z,52.79
2024-03-13T00:36:04.856Z,52.66
2024-03-13T00:37:05.110Z,52.09
2024-03-13T00:38:05.335Z,51.77
2024-03-13T00:39:05.350Z,51.40
2024-03-13T00:40:05.603Z,52.03
2024-03-13T00:41:05.670Z,52.40
2024-03-13T00:42:05.802Z,51.76
2024-03-13T00:43:05.905Z,51.60
2024-03-13T00:44:05.991Z,51.35
2024-03-13T00:45:06.059Z,51.61
2024-03-13T00:46:06.252Z,51.40
2024-03-13T00:47:06.336Z,51.77
2024-03-13T00:48:06.371Z,51.73
2024-03-13T00:49:06.488Z,51.00
2024-03-13T00:50:06.566Z,51.71
2024-03-13T00:51:06.680Z,51.30
2024-03-13T00:52:06.890Z,51.37
2024-03-13T00:53:06.875Z,51.87
2024-03-13T00:54:06.983Z,51.13
2024-03-13T00:55:07.118Z,50.98
2024-03-13T00:56:07.198Z,51.86
2024-03-13T00:57:07.374Z,51.09
2024-03-13T00:58:07.467Z,50.39
2024-03-13T00:59:07.490Z,50.20
2024-03-13T01:00:07.599Z,50.46
2024-03-13T01:01:07.713Z,50.27
2024-03-13T01:02:07.817Z,49.95
2024-03-13T01:03:10.151Z,49.87
2024-03-13T01:04:07.993Z,49.71
2024-03-13T01:05:08.140Z,49.22
2024-03-13T01:06:08.216Z,49.58
2024-03-13T01:07:08.652Z,49.86
2024-03-13T01:08:08.375Z,50.04
2024-03-13T01:09:08.466Z,49.81
2024-03-13T01:10:08.641Z,50.24
2024-03-13T01:11:08.698Z,49.35
2024-03-13T01:12:08.773Z,49.24
2024-03-13T01:13:08.932Z,49.12
2024-03-13T01:14:09.012Z,49.22
2024-03-13T01:15:09.122Z,49.49
2024-03-13T01:16:09.169Z,49.46
2024-03-13T01:17:09.246Z,49.18
2024-03-13T01:18:09.395Z,49.46
2024-03-13T01:19:09.653Z,49.82
2024-03-13T01:20:09.610Z,50.16
2024-03-13T01:21:09.617Z,50.52
2024-03-13T01:22:09.770Z,51.40
2024-03-13T01:23:09.847Z,50.38
2024-03-13T01:24:09.986Z,49.75
2024-03-13T01:25:10.045Z,48.53
2024-03-13T01:26:10.097Z,48.71
2024-03-13T01:27:10.227Z,48.39
2024-03-13T01:28:10.502Z,48.07
2024-03-13T01:29:10.406Z,48.20
2024-03-13T01:30:10.504Z,49.39
2024-03-13T01:31:10.667Z,48.61
2024-03-13T01:32:10.703Z,48.17
2024-03-13T01:33:10.808Z,48.86
2024-03-13T01:34:10.890Z,48.94
2024-03-13T01:35:10.991Z,48.70
2024-03-13T01:36:11.085Z,48.52
2024-03-13T01:37:11.262Z,48.92
2024-03-13T01:38:11.397Z,49.02
2024-03-13T01:39:11.592Z,49.22
2024-03-13T01:40:11.783Z,49.66
2024-03-13T01:41:11.791Z,48.97
2024-03-13T01:42:11.951Z,48.83
2024-03-13T01:43:12.061Z,48.38
2024-03-13T01:44:12.165Z,48.45
2024-03-13T01:45:12.306Z,48.29
2024-03-13T01:46:12.534Z,48.44
2024-03-13T01:47:12.603Z,48.94
2024-03-13T01:48:12.713Z,49.58
2024-03-13T01:49:12.865Z,50.35
2024-03-13T01:50:12.992Z,50.38
2024-03-13T01:51:13.088Z,49.35
2024-03-13T01:52:13.311Z,50.55
2024-03-13T01:53:13.370Z,50.16
2024-03-13T01:54:13.555Z,50.66
2024-03-13T01:55:13.700Z,51.35
2024-03-13T01:56:13.832Z,51.43
2024-03-13T01:57:14.020Z,52.01
2024-03-13T01:58:14.191Z,52.44
2024-03-13T01:59:14.338Z,51.53
2024-03-13T02:00:14.473Z,51.51
2024-03-13T02:01:14.765Z,51.52
2024-03-13T02:02:14.755Z,52.07
2024-03-13T02:03:14.833Z,52.30
2024-03-13T02:04:14.885Z,52.89
2024-03-13T02:05:15.072Z,53.00
2024-03-13T02:06:15.138Z,53.02
2024-03-13T02:07:15.316Z,53.00
2024-03-13T02:08:15.453Z,52.97
2024-03-13T02:09:15.548Z,53.34
2024-03-13T02:10:15.802Z,53.31
2024-03-13T02:11:15.892Z,53.45
2024-03-13T02:12:15.986Z,53.73
2024-03-13T02:13:16.206Z,54.49
2024-03-13T02:14:16.322Z,54.37
2024-03-13T02:15:16.516Z,54.07
2024-03-13T02:16:16.731Z,54.32
2024-03-13T02:17:16.795Z,54.85
2024-03-13T02:18:17.018Z,54.38
2024-03-13T02:19:17.155Z,54.45
2024-03-13T02:20:17.277Z,54.24
2024-03-13T02:21:17.455Z,54.01
2024-03-13T02:22:17.689Z,53.86
2024-03-13T02:23:17.765Z,54.15
2024-03-13T02:24:17.900Z,53.89
2024-03-13T02:25:18.127Z,53.80
2024-03-13T02:26:18.290Z,53.81
2024-03-13T02:27:18.340Z,53.96
2024-03-13T02:28:18.479Z,54.71
2024-03-13T02:29:18.528Z,54.86
2024-03-13T02:30:18.712Z,54.53
2024-03-13T02:31:18.878Z,55.57
2024-03-13T02:32:18.857Z,55.28
2024-03-13T02:33:19.044Z,55.98
2024-03-13T02:34:19.240Z,56.19
2024-03-13T02:35:19.373Z,56.05
2024-03-13T02:36:19.594Z,56.38
2024-03-13T02:37:19.794Z,56.20
2024-03-13T02:38:19.929Z,56.01
2024-03-13T02:39:20.233Z,56.24
2024-03-13T02:40:20.205Z,55.91
2024-03-13T02:41:20.370Z,56.94
2024-03-13T02:42:20.363Z,57.21
2024-03-13T02:43:20.677Z,55.61
2024-03-13T02:44:20.573Z,56.06
2024-03-13T02:45:20.704Z,56.43
2024-03-13T02:46:20.853Z,56.05
2024-03-13T02:47:20.899Z,56.63
2024-03-13T02:48:21.017Z,56.54
2024-03-13T02:49:21.194Z,56.52
2024-03-13T02:50:21.236Z,55.97
2024-03-13T02:51:21.337Z,56.52
2024-03-13T02:52:21.498Z,55.43
2024-03-13T02:53:21.575Z,56.18
2024-03-13T02:54:21.667Z,56.31
2024-03-13T02:55:21.863Z,56.77
2024-03-13T02:56:21.881Z,57.00
2024-03-13T02:57:21.982Z,57.32
2024-03-13T02:58:22.244Z,56.56
2024-03-13T02:59:22.206Z,55.74
2024-03-13T03:00:22.325Z,56.08
2024-03-13T03:01:22.536Z,56.61
2024-03-13T03:02:22.690Z,56.69
2024-03-13T03:03:22.717Z,56.19
2024-03-13T03:04:22.898Z,56.77
2024-03-13T03:05:22.993Z,57.47
2024-03-13T03:06:23.084Z,56.42
2024-03-13T03:07:23.347Z,56.39
2024-03-13T03:08:23.304Z,56.36
2024-03-13T03:09:23.510Z,56.34
2024-03-13T03:10:23.723Z,56.05
2024-03-13T03:11:23.740Z,56.63
2024-03-13T03:12:23.922Z,57.21
2024-03-13T03:13:24.103Z,56.83
2024-03-13T03:14:24.200Z,56.78
2024-03-13T03:15:24.383Z,56.32
2024-03-13T03:16:24.570Z,57.26
2024-03-13T03:17:24.735Z,57.54
2024-03-13T03:18:24.863Z,56.83
2024-03-13T03:19:25.107Z,57.45
2024-03-13T03:20:25.118Z,57.32
2024-03-13T03:21:25.221Z,57.23
2024-03-13T03:22:25.439Z,57.68
2024-03-13T03:23:25.449Z,57.44
2024-03-13T03:24:25.580Z,57.39
2024-03-13T03:25:26.158Z,57.98
2024-03-13T03:26:25.878Z,57.17
2024-03-13T03:27:25.953Z,57.43
2024-03-13T03:28:26.118Z,57.71
2024-03-13T03:29:26.146Z,57.81
2024-03-13T03:30:26.357Z,57.54
2024-03-13T03:31:26.520Z,57.10
2024-03-13T03:32:26.991Z,56.92
2024-03-13T03:33:26.812Z,56.78
2024-03-13T03:34:27.080Z,56.33
2024-03-13T03:35:27.250Z,56.50
2024-03-13T03:36:27.355Z,56.21
2024-03-13T03:37:27.560Z,55.97
2024-03-13T03:38:27.676Z,56.58
2024-03-13T03:39:27.725Z,56.29
2024-03-13T03:40:27.968Z,56.90
2024-03-13T03:41:27.954Z,56.32
2024-03-13T03:42:28.120Z,57.23
2024-03-13T03:43:28.342Z,57.80
2024-03-13T03:44:28.264Z,57.69
2024-03-13T03:45:28.440Z,57.35
2024-03-13T03:46:28.590Z,57.11
2024-03-13T03:47:28.710Z,57.32
2024-03-13T03:48:28.961Z,56.97
2024-03-13T03:49:28.920Z,57.80
2024-03-13T03:50:28.989Z,57.47
2024-03-13T03:51:29.091Z,57.25
2024-03-13T03:52:29.216Z,56.78
2024-03-13T03:53:29.359Z,57.30
2024-03-13T03:54:29.481Z,57.26
2024-03-13T03:55:29.632Z,57.62
2024-03-13T03:56:30.454Z,57.40
2024-03-13T03:57:29.910Z,57.29
2024-03-13T03:58:30.126Z,57.63
2024-03-13T03:59:30.166Z,56.87
2024-03-13T04:00:30.303Z,56.94
2024-03-13T04:01:30.516Z,57.16
2024-03-13T04:02:30.547Z,57.07
2024-03-13T04:03:30.609Z,57.08
2024-03-13T04:04:30.815Z,57.15
2024-03-13T04:05:30.873Z,57.91
2024-03-13T04:06:30.975Z,57.87
2024-03-13T04:07:31.144Z,57.79
2024-03-13T04:08:31.214Z,57.38
2024-03-13T04:09:31.339Z,57.82
2024-03-13T04:10:31.513Z,57.50
2024-03-13T04:11:31.561Z,57.15
2024-03-13T04:12:31.668Z,56.97
2024-03-13T04:13:32.910Z,57.94
2024-03-13T04:14:31.894Z,57.45
2024-03-13T04:15:32.071Z,57.93
2024-03-13T04:16:32.219Z,57.59
2024-03-13T04:17:32.269Z,57.91
2024-03-13T04:18:32.407Z,57.66
2024-03-13T04:19:32.520Z,57.53
2024-03-13T04:20:32.678Z,57.52
2024-03-13T04:21:32.738Z,57.35
2024-03-13T04:22:32.915Z,58.16
2024-03-13T04:23:32.956Z,57.65
2024-03-13T04:24:33.055Z,57.52
2024-03-13T04:25:33.254Z,57.21
2024-03-13T04:26:33.394Z,57.68
2024-03-13T04:27:33.546Z,58.10
2024-03-13T04:28:33.702Z,58.37
2024-03-13T04:29:39.076Z,58.08
2024-03-13T04:30:35.000Z,58.82
2024-03-13T04:31:34.048Z,58.59
2024-03-13T04:32:34.099Z,58.52
2024-03-13T04:33:34.198Z,59.09
2024-03-13T04:34:34.364Z,59.34
2024-03-13T04:35:34.423Z,59.32
2024-03-13T04:36:34.472Z,58.90
2024-03-13T04:37:34.622Z,58.61
2024-03-13T04:38:34.738Z,58.99
2024-03-13T04:39:34.815Z,58.89
2024-03-13T04:40:34.984Z,58.98
2024-03-13T04:41:34.976Z,59.24
2024-03-13T04:42:35.089Z,59.35
2024-03-13T04:43:35.224Z,59.11
2024-03-13T04:44:35.323Z,58.60
2024-03-13T04:45:35.422Z,58.56
2024-03-13T04:46:35.588Z,59.25
2024-03-13T04:47:39.549Z,59.17
2024-03-13T04:48:36.770Z,59.04
2024-03-13T04:49:35.924Z,58.81
2024-03-13T04:50:35.976Z,58.94
2024-03-13T04:51:36.106Z,58.61
2024-03-13T04:52:36.137Z,58.52
2024-03-13T04:53:36.282Z,58.33
2024-03-13T04:54:36.370Z,58.32
2024-03-13T04:55:36.510Z,58.52
2024-03-13T04:56:36.594Z,58.74
2024-03-13T04:57:36.656Z,58.74
2024-03-13T04:58:36.757Z,58.88
2024-03-13T04:59:36.872Z,58.78
2024-03-13T05:00:36.997Z,58.33
2024-03-13T05:01:37.151Z,58.49
2024-03-13T05:02:40.419Z,58.28
2024-03-13T05:03:48.829Z,58.35
2024-03-13T05:04:48.773Z,58.02
2024-03-13T05:05:48.816Z,57.89
2024-03-13T05:06:48.845Z,57.96
2024-03-13T05:07:48.807Z,59.11
2024-03-13T05:08:48.794Z,58.41
2024-03-13T05:09:48.856Z,58.11
2024-03-13T05:10:48.906Z,58.26
2024-03-13T05:11:48.784Z,57.99
2024-03-13T05:12:48.825Z,58.43
2024-03-13T05:13:48.846Z,58.02
2024-03-13T05:14:48.813Z,58.54
2024-03-13T05:15:49.378Z,58.56
2024-03-13T05:16:48.823Z,58.33
2024-03-13T05:17:48.988Z,58.55
2024-03-13T05:18:48.882Z,59.06
2024-03-13T05:19:48.856Z,58.37
2024-03-13T05:20:48.834Z,58.85
2024-03-13T05:21:48.923Z,59.15
2024-03-13T05:22:48.961Z,58.70
2024-03-13T05:23:48.860Z,58.96
2024-03-13T05:24:48.900Z,59.75
2024-03-13T05:25:51.800Z,59.14
2024-03-13T05:26:48.883Z,59.27
2024-03-13T05:27:48.918Z,59.25
2024-03-13T05:28:48.898Z,59.23
2024-03-13T05:29:48.919Z,59.16
2024-03-13T05:30:48.966Z,58.98
2024-03-13T05:31:48.961Z,58.67
2024-03-13T05:32:48.990Z,59.31
2024-03-13T05:33:48.916Z,59.71
2024-03-13T05:34:48.981Z,59.63
2024-03-13T05:35:48.952Z,59.54
2024-03-13T05:36:48.993Z,59.59
2024-03-13T05:37:48.963Z,59.22
2024-03-13T05:38:48.979Z,59.15
2024-03-13T05:39:49.032Z,59.12
2024-03-13T05:40:49.006Z,59.41
2024-03-13T05:41:49.002Z,59.47
2024-03-13T05:42:49.026Z,59.54
2024-03-13T05:43:49.001Z,59.91
2024-03-13T05:44:49.009Z,59.33
2024-03-13T05:45:49.041Z,59.15
2024-03-13T05:46:49.027Z,59.31
2024-03-13T05:47:49.058Z,59.24
2024-03-13T05:48:49.110Z,59.28
2024-03-13T05:49:49.067Z,58.53
2024-03-13T05:50:49.050Z,59.43
2024-03-13T05:51:49.342Z,59.34
2024-03-13T05:52:49.068Z,59.28
2024-03-13T05:53:49.066Z,59.22
2024-03-13T05:54:49.076Z,59.23
2024-03-13T05:55:49.091Z,59.19
2024-03-13T05:56:49.048Z,59.40
2024-03-13T05:57:49.137Z,59.28
2024-03-13T05:58:49.054Z,59.09
2024-03-13T05:59:49.076Z,59.23
2024-03-13T06:02:18.100Z,59.14
2024-03-13T06:02:56.190Z,58.83
2024-03-13T06:03:55.360Z,58.90
2024-03-13T06:04:55.362Z,59.35
2024-03-13T06:05:55.348Z,59.58
2024-03-13T06:06:55.442Z,59.02
2024-03-13T06:07:55.375Z,58.57
2024-03-13T06:08:55.362Z,59.19
2024-03-13T06:09:55.388Z,58.84
2024-03-13T06:10:55.571Z,58.41
2024-03-13T06:11:55.347Z,59.40
2024-03-13T06:12:55.385Z,58.66
2024-03-13T06:13:55.410Z,58.75
2024-03-13T06:14:55.462Z,58.71
2024-03-13T06:15:55.627Z,59.25
2024-03-13T06:16:55.627Z,59.19
2024-03-13T06:17:55.657Z,59.42
2024-03-13T06:18:55.721Z,59.36
2024-03-13T06:19:55.710Z,59.19
2024-03-13T06:20:55.809Z,59.49
2024-03-13T06:21:55.871Z,59.27
2024-03-13T06:22:55.876Z,58.70
2024-03-13T06:23:55.988Z,58.26
2024-03-13T06:24:56.110Z,58.21
2024-03-13T06:25:56.102Z,58.24
2024-03-13T06:26:56.156Z,58.11
2024-03-13T06:27:56.185Z,58.13
2024-03-13T06:28:56.228Z,58.14
2024-03-13T06:29:56.310Z,57.71
2024-03-13T06:30:56.645Z,57.68
2024-03-13T06:31:56.436Z,58.02
2024-03-13T06:32:57.089Z,57.50
2024-03-13T06:33:56.905Z,57.14
2024-03-13T06:34:56.572Z,57.30
2024-03-13T06:35:57.065Z,57.49
2024-03-13T06:36:56.783Z,57.16
2024-03-13T06:37:56.754Z,57.19
2024-03-13T06:38:56.817Z,57.26
2024-03-13T06:39:57.015Z,56.49
2024-03-13T06:40:57.026Z,56.92
2024-03-13T06:41:56.982Z,57.13
2024-03-13T06:42:57.027Z,56.92
2024-03-13T06:43:57.050Z,56.46
2024-03-13T06:44:57.056Z,57.17
2024-03-13T06:47:27.725Z,57.25
2024-03-13T06:48:02.491Z,57.14
2024-03-13T06:49:02.347Z,57.12
2024-03-13T06:50:02.425Z,57.00
2024-03-13T06:51:02.637Z,57.27
2024-03-13T06:52:02.472Z,57.80
2024-03-13T06:53:02.438Z,56.43
2024-03-13T06:54:02.345Z,56.59
2024-03-13T06:55:02.508Z,55.65
2024-03-13T06:56:02.678Z,55.90
2024-03-13T06:57:02.565Z,55.83
2024-03-13T06:58:03.162Z,56.10
2024-03-13T06:59:02.404Z,56.21
2024-03-13T07:00:02.412Z,57.04
2024-03-13T07:01:02.773Z,56.21
2024-03-13T07:02:02.533Z,55.86
2024-03-13T07:03:02.419Z,55.96
2024-03-13T07:04:02.440Z,56.21
2024-03-13T07:05:02.425Z,56.49
2024-03-13T07:06:02.427Z,55.62
2024-03-13T07:07:02.509Z,55.31
2024-03-13T07:08:02.437Z,56.03
2024-03-13T07:09:02.458Z,56.34
2024-03-13T07:10:02.498Z,56.55
2024-03-13T07:11:02.497Z,57.03
2024-03-13T07:12:02.568Z,56.66
2024-03-13T07:13:02.485Z,56.73
2024-03-13T07:14:02.578Z,56.33
2024-03-13T07:15:02.582Z,55.96
2024-03-13T07:16:02.677Z,56.29
2024-03-13T07:17:02.610Z,56.27
2024-03-13T07:18:04.210Z,56.60
2024-03-13T07:19:02.645Z,56.62
2024-03-13T07:20:02.638Z,56.37
2024-03-13T07:21:03.141Z,56.40
2024-03-13T07:22:03.464Z,56.56
2024-03-13T07:23:02.750Z,56.69
2024-03-13T07:24:02.751Z,56.40
2024-03-13T07:25:02.808Z,57.14
2024-03-13T07:26:03.172Z,55.70
2024-03-13T07:27:02.797Z,55.36
2024-03-13T07:28:02.930Z,56.07
2024-03-13T07:29:02.899Z,56.63
2024-03-13T07:30:02.997Z,56.01
2024-03-13T07:31:03.181Z,55.60
2024-03-13T07:32:03.074Z,55.51
2024-03-13T07:33:03.157Z,56.12
2024-03-13T07:34:03.241Z,55.97
2024-03-13T07:35:03.152Z,55.87
2024-03-13T07:36:03.649Z,55.69
2024-03-13T07:37:03.289Z,55.28
2024-03-13T07:38:03.356Z,55.59
2024-03-13T07:39:03.404Z,55.44
2024-03-13T07:40:05.198Z,55.03
2024-03-13T07:41:03.789Z,55.87
2024-03-13T07:42:03.497Z,54.22
2024-03-13T07:43:03.636Z,54.85
2024-03-13T07:44:03.596Z,54.97
2024-03-13T07:45:03.632Z,54.83
2024-03-13T07:46:04.199Z,55.01
2024-03-13T07:47:03.654Z,55.57
2024-03-13T07:48:03.765Z,54.79
2024-03-13T07:49:04.184Z,54.86
2024-03-13T07:50:03.705Z,54.31
2024-03-13T07:51:04.591Z,54.37
2024-03-13T07:52:04.054Z,53.93
2024-03-13T07:53:03.824Z,54.50
2024-03-13T07:54:03.902Z,53.81
2024-03-13T07:55:03.964Z,54.03
2024-03-13T07:56:04.210Z,53.90
2024-03-13T07:57:03.953Z,54.46
2024-03-13T07:58:04.095Z,54.81
2024-03-13T07:59:03.962Z,54.25
2024-03-13T08:00:03.942Z,54.95
2024-03-13T08:01:04.122Z,54.40
2024-03-13T08:02:04.149Z,53.11
2024-03-13T08:03:04.064Z,53.43
2024-03-13T08:04:04.126Z,53.37
2024-03-13T08:05:04.046Z,52.94
2024-03-13T09:06:02.600Z,44.17
2024-03-13T09:07:01.951Z,43.57
2024-03-13T09:08:02.002Z,44.21
2024-03-13T09:09:01.783Z,44.46
2024-03-13T09:10:01.688Z,45.74
2024-03-13T09:11:01.721Z,44.26
2024-03-13T09:12:01.749Z,45.09
2024-03-13T09:13:01.563Z,44.55
2024-03-13T09:14:01.550Z,44.69
2024-03-13T09:15:02.231Z,45.02
2024-03-13T09:16:01.433Z,44.42
2024-03-13T09:17:01.377Z,45.18
2024-03-13T09:18:01.484Z,45.34
2024-03-13T09:19:01.391Z,44.54
2024-03-13T09:20:01.193Z,44.78
2024-03-13T09:21:01.283Z,44.68
2024-03-13T09:22:02.024Z,44.10
2024-03-13T09:23:01.647Z,44.22
2024-03-13T09:24:01.044Z,44.38
2024-03-13T09:25:00.943Z,43.94
2024-03-13T09:26:00.918Z,44.05
2024-03-13T09:27:01.819Z,44.24
2024-03-13T09:28:00.823Z,45.23
2024-03-13T09:29:00.801Z,45.01
2024-03-13T09:30:00.903Z,45.13
2024-03-13T09:31:01.604Z,44.24
2024-03-13T09:32:01.151Z,44.26
2024-03-13T09:33:00.975Z,44.95
2024-03-13T09:34:00.865Z,43.38
2024-03-13T09:35:00.635Z,44.10
2024-03-13T09:36:00.721Z,43.44
2024-03-13T09:37:01.150Z,42.52
2024-03-13T09:38:00.590Z,41.69
2024-03-13T09:39:00.911Z,42.00
2024-03-13T09:40:00.593Z,42.69
2024-03-13T09:41:00.571Z,43.53
2024-03-13T09:42:00.713Z,43.34
2024-03-13T09:43:00.604Z,43.72
2024-03-13T09:44:00.690Z,43.56
2024-03-13T09:45:00.736Z,44.21
2024-03-13T09:46:00.482Z,42.89
2024-03-13T09:47:00.683Z,42.06
2024-03-13T09:48:00.545Z,41.85
2024-03-13T09:49:00.582Z,42.18
2024-03-13T09:50:00.416Z,40.79
2024-03-13T09:52:00.856Z,40.29
2024-03-13T09:53:00.208Z,41.09
2024-03-13T09:54:00.157Z,41.24
2024-03-13T09:54:59.979Z,40.41
2024-03-13T09:55:59.897Z,40.16
2024-03-13T09:57:00.368Z,40.18
2024-03-13T09:57:59.800Z,40.07
2024-03-13T09:58:59.711Z,38.44
2024-03-13T09:59:59.671Z,37.98
2024-03-13T10:00:59.611Z,38.43
2024-03-13T10:01:59.622Z,39.51
2024-03-13T10:02:59.472Z,40.96
2024-03-13T10:03:59.374Z,38.73
2024-03-13T10:04:59.264Z,38.87
2024-03-13T10:05:59.203Z,38.19
2024-03-13T10:06:59.449Z,40.12
2024-03-13T10:07:59.460Z,38.14
2024-03-13T10:08:59.002Z,37.70
2024-03-13T10:09:58.858Z,36.97
2024-03-13T10:10:59.073Z,37.12
2024-03-13T10:11:58.792Z,37.39
2024-03-13T10:12:58.737Z,36.40
2024-03-13T10:13:58.581Z,36.22
2024-03-13T10:14:58.513Z,37.23
2024-03-13T10:15:58.394Z,37.44
2024-03-13T10:17:00.652Z,37.77
2024-03-13T10:17:58.709Z,37.04
2024-03-13T10:18:58.184Z,36.76
2024-03-13T10:19:58.013Z,38.23
2024-03-13T10:20:57.938Z,36.84
2024-03-13T10:21:57.845Z,37.73
2024-03-13T10:22:57.652Z,38.47
2024-03-13T10:23:57.729Z,40.31
2024-03-13T10:24:57.530Z,38.29
2024-03-13T10:25:57.369Z,38.23
2024-03-13T10:26:57.257Z,36.12
2024-03-13T10:27:57.689Z,38.54
2024-03-13T10:28:57.076Z,37.31
2024-03-13T10:29:57.009Z,38.72
2024-03-13T10:30:56.945Z,39.79
2024-03-13T10:31:56.823Z,36.32
2024-03-13T10:32:56.845Z,37.35
2024-03-13T10:33:56.743Z,34.65
2024-03-13T10:34:59.112Z,35.54
2024-03-13T10:35:56.309Z,35.69
2024-03-13T10:37:05.116Z,35.53
2024-03-13T10:37:57.142Z,36.74
2024-03-13T10:38:56.038Z,35.09
2024-03-13T10:39:55.792Z,35.04
2024-03-13T10:40:56.683Z,34.59
2024-03-13T10:41:55.609Z,36.98
2024-03-13T10:42:55.668Z,35.14
2024-03-13T10:43:55.206Z,33.82
2024-03-13T10:44:55.197Z,35.36
2024-03-13T10:45:55.166Z,37.15
2024-03-13T10:46:55.624Z,36.30
2024-03-13T10:47:55.241Z,34.15
2024-03-13T10:48:54.693Z,33.54
2024-03-13T10:49:54.929Z,32.63
2024-03-13T10:50:55.539Z,33.04
2024-03-13T10:51:54.231Z,32.65
2024-03-13T10:52:54.682Z,34.16
2024-03-13T10:53:54.218Z,34.11
2024-03-13T10:54:54.080Z,36.00
2024-03-13T10:55:54.050Z,34.80
2024-03-13T10:56:54.006Z,35.96
2024-03-13T10:57:53.863Z,37.79
2024-03-13T10:58:53.791Z,36.16
2024-03-13T10:59:53.754Z,37.27
2024-03-13T11:00:53.698Z,35.77
2024-03-13T11:01:53.727Z,35.82
2024-03-13T11:02:53.745Z,37.31
2024-03-13T11:03:53.512Z,36.39
2024-03-13T11:04:53.397Z,36.75
2024-03-13T11:05:53.389Z,37.06
2024-03-13T11:06:53.360Z,36.85
2024-03-13T11:07:53.677Z,39.12
2024-03-13T11:08:54.153Z,37.33
2024-03-13T11:09:53.225Z,35.74
2024-03-13T11:11:06.300Z,35.53
2024-03-13T11:11:54.823Z,35.76
2024-03-13T11:12:53.387Z,35.42
2024-03-13T11:13:52.884Z,37.63
2024-03-13T11:14:52.750Z,36.59
2024-03-13T11:15:52.620Z,35.51
2024-03-13T11:16:52.530Z,34.56
2024-03-13T11:17:52.859Z,34.95
2024-03-13T11:18:52.562Z,33.11
2024-03-13T11:19:52.278Z,32.80
2024-03-13T11:20:52.180Z,32.88
2024-03-13T11:21:52.032Z,32.66
2024-03-13T11:22:52.180Z,32.52
2024-03-13T11:23:51.920Z,32.59
2024-03-13T11:24:51.877Z,32.68
2024-03-13T11:25:51.741Z,32.50
2024-03-13T11:26:51.549Z,32.46
2024-03-13T11:27:51.523Z,33.23
2024-03-13T11:28:51.794Z,31.76
2024-03-13T11:29:51.375Z,31.68
2024-03-13T11:30:51.147Z,31.40
2024-03-13T11:31:51.104Z,31.27
2024-03-13T11:32:51.026Z,33.93
2024-03-13T11:33:51.501Z,31.65
2024-03-13T11:34:50.772Z,30.45
2024-03-13T11:35:50.660Z,30.43
2024-03-13T11:36:50.590Z,30.64
2024-03-13T11:37:50.371Z,30.83
2024-03-13T11:38:50.755Z,30.61
2024-03-13T11:39:50.153Z,33.44
2024-03-13T11:40:50.165Z,34.13
2024-03-13T11:41:50.076Z,33.65
2024-03-13T11:42:49.895Z,32.39
2024-03-13T11:43:50.231Z,32.97
2024-03-13T11:44:49.583Z,35.14
2024-03-13T11:45:49.465Z,34.39
2024-03-13T11:46:49.432Z,31.52
2024-03-13T11:47:49.610Z,30.79
2024-03-13T11:48:49.381Z,31.63
2024-03-13T11:49:49.147Z,32.22
2024-03-13T11:50:49.010Z,31.75
2024-03-13T11:51:48.808Z,32.72
2024-03-13T11:52:48.751Z,31.78
2024-03-13T11:53:48.783Z,32.94
2024-03-13T11:54:48.588Z,31.08
2024-03-13T11:55:48.405Z,30.79
2024-03-13T11:56:48.339Z,31.38
2024-03-13T11:57:48.170Z,31.87
2024-03-13T11:58:48.251Z,29.45
2024-03-13T11:59:48.278Z,29.04
2024-03-13T12:00:47.835Z,30.62
2024-03-13T12:01:47.685Z,33.32
2024-03-13T12:02:47.680Z,31.75
2024-03-13T12:03:47.506Z,31.70
2024-03-13T12:04:47.676Z,31.41
2024-03-13T12:05:47.452Z,29.80
2024-03-13T12:06:48.589Z,30.20
2024-03-13T12:07:46.987Z,29.66
2024-03-13T12:08:47.240Z,29.55
2024-03-13T12:09:46.756Z,29.28
2024-03-13T12:10:46.660Z,28.97
2024-03-13T12:11:46.513Z,29.15
2024-03-13T12:12:46.374Z,28.54
2024-03-13T12:13:46.676Z,28.56
2024-03-13T12:14:46.562Z,28.06
2024-03-13T12:15:45.902Z,28.18
2024-03-13T12:16:45.842Z,27.95
2024-03-13T12:17:45.777Z,29.66
2024-03-13T12:18:45.790Z,30.33
2024-03-13T12:19:45.521Z,29.14
2024-03-13T12:20:45.468Z,29.15
2024-03-13T12:21:45.291Z,28.90
2024-03-13T12:22:45.142Z,32.50
2024-03-13T12:23:45.227Z,29.37
2024-03-13T12:24:44.868Z,28.62
2024-03-13T12:25:44.817Z,28.51
2024-03-13T12:26:44.692Z,28.07
2024-03-13T12:27:44.526Z,28.39
2024-03-13T12:28:44.726Z,30.68
2024-03-13T12:29:44.224Z,30.15
2024-03-13T12:30:44.065Z,28.00
2024-03-13T12:31:44.014Z,28.49
2024-03-13T12:32:43.885Z,27.83
2024-03-13T12:33:44.302Z,29.43
2024-03-13T12:34:43.510Z,28.27
2024-03-13T12:35:43.549Z,27.99
2024-03-13T12:36:43.447Z,29.10
2024-03-13T12:37:43.203Z,31.52
2024-03-13T12:38:43.111Z,29.17
2024-03-13T12:39:42.949Z,29.41
2024-03-13T12:40:42.936Z,28.19
2024-03-13T12:41:42.755Z,28.56
2024-03-13T12:42:42.578Z,30.70
2024-03-13T12:43:45.784Z,29.47
2024-03-13T12:44:42.296Z,28.06
2024-03-13T12:45:42.129Z,30.53
2024-03-13T12:46:41.957Z,28.32
2024-03-13T12:47:41.873Z,28.80
2024-03-13T12:48:41.705Z,27.77
2024-03-13T12:49:41.442Z,28.26
2024-03-13T12:50:41.284Z,28.71
2024-03-13T12:51:41.152Z,28.06
2024-03-13T12:52:40.891Z,27.45
2024-03-13T12:53:41.290Z,27.86
2024-03-13T12:54:40.543Z,28.17
2024-03-13T12:55:40.346Z,29.21
2024-03-13T12:56:40.208Z,28.90
2024-03-13T12:57:40.076Z,29.80
2024-03-13T12:58:39.961Z,30.45
2024-03-13T12:59:40.709Z,28.96
2024-03-13T13:00:39.557Z,29.81
2024-03-13T13:01:39.493Z,29.36
2024-03-13T13:02:39.277Z,29.20
2024-03-13T13:03:39.140Z,28.44
2024-03-13T13:04:38.976Z,29.40
2024-03-13T13:05:40.826Z,29.60
2024-03-13T13:06:38.717Z,29.62
2024-03-13T13:07:38.578Z,29.77
2024-03-13T13:08:38.499Z,30.95
2024-03-13T13:09:38.216Z,29.15
2024-03-13T13:10:38.054Z,28.48
2024-03-13T13:11:37.996Z,28.23
2024-03-13T13:12:37.879Z,28.15
2024-03-13T13:13:37.665Z,30.26
2024-03-13T13:14:37.477Z,28.82
2024-03-13T13:15:37.390Z,28.92
2024-03-13T13:16:37.181Z,29.58
2024-03-13T13:17:37.069Z,28.63
2024-03-13T13:18:37.083Z,27.91
2024-03-13T13:19:36.718Z,28.78
2024-03-13T13:20:36.572Z,28.16
2024-03-13T13:21:36.459Z,28.61
2024-03-13T13:22:36.336Z,28.53
2024-03-13T13:23:36.237Z,28.42
2024-03-13T13:24:35.982Z,29.01
2024-03-13T13:25:35.886Z,29.66
2024-03-13T13:26:35.780Z,29.28
2024-03-13T13:27:35.546Z,28.38
2024-03-13T13:28:35.589Z,28.03
2024-03-13T13:29:35.263Z,28.93
2024-03-13T13:30:35.125Z,29.55
2024-03-13T13:31:34.956Z,28.30
2024-03-13T13:32:34.842Z,28.05
2024-03-13T13:33:34.883Z,28.17
2024-03-13T13:34:34.408Z,29.19
2024-03-13T13:35:34.289Z,28.64
2024-03-13T13:36:34.099Z,28.30
2024-03-13T13:37:33.965Z,28.41
2024-03-13T13:39:09.524Z,28.20
2024-03-13T13:40:09.367Z,27.77
2024-03-13T13:41:09.543Z,28.30
2024-03-13T13:42:09.387Z,28.91
2024-03-13T13:43:09.348Z,28.45
2024-03-13T13:44:09.359Z,28.89
2024-03-13T13:45:09.502Z,28.44
2024-03-13T13:46:09.376Z,28.98
2024-03-13T13:47:09.447Z,28.63
2024-03-13T13:48:09.413Z,28.10
2024-03-13T13:49:09.623Z,28.56
2024-03-13T13:50:09.396Z,29.43
2024-03-13T13:51:09.434Z,28.23
2024-03-13T13:52:09.413Z,29.15
2024-03-13T13:53:09.418Z,29.01
2024-03-13T13:54:09.585Z,29.37
2024-03-13T13:55:09.468Z,29.98
2024-03-13T13:56:09.528Z,30.66
2024-03-13T13:57:09.620Z,29.93